createdAt,value
2023-01-13T00:01:54.365Z,92.45
2023-01-13T00:04:25.894Z,92.40
2023-01-13T00:06:57.225Z,92.37
2023-01-13T00:09:28.157Z,92.36
2023-01-13T00:11:59.132Z,92.34
2023-01-13T00:14:32.406Z,92.26
2023-01-13T00:17:04.085Z,92.21
2023-01-13T00:19:35.536Z,92.23
2023-01-13T00:22:07.196Z,92.28
2023-01-13T00:24:38.351Z,92.21
2023-01-13T00:27:07.948Z,92.21
2023-01-13T00:29:38.940Z,92.15
2023-01-13T00:32:10.181Z,92.16
2023-01-13T00:34:41.241Z,92.18
2023-01-13T00:37:14.740Z,92.19
2023-01-13T00:39:46.022Z,92.08
2023-01-13T00:42:35.086Z,92.11
2023-01-13T00:45:07.138Z,92.03
2023-01-13T00:47:38.445Z,92.02
2023-01-13T00:50:11.805Z,92.11
2023-01-13T00:52:42.955Z,92.16
2023-01-13T00:55:12.437Z,92.24
2023-01-13T00:57:43.706Z,92.32
2023-01-13T01:00:14.730Z,92.39
2023-01-13T01:02:46.016Z,92.46
2023-01-13T01:05:17.304Z,92.54
2023-01-13T01:07:46.892Z,92.51
2023-01-13T01:10:18.541Z,92.54
2023-01-13T01:12:51.071Z,92.48
2023-01-13T01:15:22.285Z,92.49
2023-01-13T01:17:53.972Z,92.47
2023-01-13T01:20:25.109Z,92.38
2023-01-13T01:22:56.563Z,92.41
2023-01-13T01:25:26.170Z,92.27
2023-01-13T01:27:57.316Z,92.21
2023-01-13T01:30:26.928Z,92.15
2023-01-13T01:32:58.680Z,92.11
2023-01-13T01:35:29.815Z,92.02
2023-01-13T01:38:01.162Z,91.88
2023-01-13T01:40:32.198Z,91.92
2023-01-13T01:43:19.221Z,91.73
2023-01-13T01:45:52.940Z,91.66
2023-01-13T01:48:24.213Z,91.64
2023-01-13T01:50:54.006Z,91.52
2023-01-13T01:53:29.757Z,91.49
2023-01-13T01:56:03.365Z,91.49
2023-01-13T01:58:41.917Z,91.45
2023-01-13T02:01:13.506Z,91.29
2023-01-13T02:03:47.153Z,91.29
2023-01-13T02:06:20.279Z,91.34
2023-01-13T02:08:53.112Z,91.26
2023-01-13T02:11:53.852Z,91.19
2023-01-13T02:14:27.936Z,91.02
2023-01-13T02:17:14.361Z,90.96
2023-01-13T02:20:20.257Z,90.82
2023-01-13T02:23:34.844Z,90.92
2023-01-13T02:26:36.847Z,90.90
2023-01-13T02:29:37.522Z,90.82
2023-01-13T02:32:21.270Z,90.84
2023-01-13T02:35:00.306Z,90.89
2023-01-13T02:37:34.657Z,90.81
2023-01-13T02:40:11.543Z,90.81
2023-01-13T02:43:20.728Z,90.79
2023-01-13T02:45:58.467Z,90.64
2023-01-13T02:48:32.498Z,90.71
2023-01-13T02:51:08.563Z,90.72
2023-01-13T02:53:44.422Z,90.74
2023-01-13T02:56:18.452Z,90.82
2023-01-13T02:58:50.257Z,90.90
2023-01-13T03:01:21.634Z,90.76
2023-01-13T03:03:52.838Z,90.61
2023-01-13T03:06:37.966Z,90.62
2023-01-13T03:09:15.601Z,90.57
2023-01-13T03:11:57.118Z,90.72
2023-01-13T03:14:43.069Z,90.68
2023-01-13T03:17:22.968Z,90.71
2023-01-13T03:20:04.154Z,90.49
2023-01-13T03:22:39.797Z,90.45
2023-01-13T03:25:17.425Z,90.45
2023-01-13T03:27:53.058Z,90.32
2023-01-13T03:30:29.413Z,90.41
2023-01-13T03:33:06.008Z,90.33
2023-01-13T03:35:41.039Z,90.45
2023-01-13T03:38:16.934Z,90.40
2023-01-13T03:40:52.821Z,90.40
2023-01-13T03:43:48.328Z,90.37
2023-01-13T03:46:24.565Z,90.53
2023-01-13T03:48:59.243Z,90.54
2023-01-13T03:51:34.210Z,90.57
2023-01-13T03:54:10.070Z,90.57
2023-01-13T03:56:44.358Z,90.65
2023-01-13T03:59:18.391Z,90.77
2023-01-13T04:01:55.901Z,90.65
2023-01-13T04:04:30.809Z,90.77
2023-01-13T04:07:09.866Z,90.75
2023-01-13T04:09:49.347Z,90.90
2023-01-13T04:12:26.248Z,91.02
2023-01-13T04:14:57.845Z,91.01
2023-01-13T04:17:29.538Z,91.20
2023-01-13T04:20:00.489Z,91.10
2023-01-13T04:22:30.000Z,91.11
2023-01-13T04:25:00.971Z,91.31
2023-01-13T04:27:30.737Z,91.33
2023-01-13T04:30:01.827Z,91.38
2023-01-13T04:32:33.133Z,91.49
2023-01-13T04:35:04.683Z,91.51
2023-01-13T04:37:36.167Z,91.51
2023-01-13T04:40:09.361Z,91.48
2023-01-13T04:42:40.252Z,91.49
2023-01-13T04:45:13.193Z,91.53
2023-01-13T04:47:44.494Z,91.64
2023-01-13T04:50:19.435Z,91.68
2023-01-13T04:52:51.134Z,91.65
2023-01-13T04:55:23.308Z,91.78
2023-01-13T04:57:54.531Z,91.70
2023-01-13T05:00:25.891Z,91.90
2023-01-13T05:02:56.917Z,91.88
2023-01-13T05:05:28.642Z,91.99
2023-01-13T05:07:59.988Z,91.99
2023-01-13T05:10:31.554Z,92.09
2023-01-13T05:13:19.984Z,92.02
2023-01-13T05:16:17.342Z,92.08
2023-01-13T05:18:48.646Z,92.07
2023-01-13T05:21:35.659Z,92.12
2023-01-13T05:24:38.940Z,92.20
2023-01-13T05:27:10.181Z,92.20
2023-01-13T05:29:41.050Z,92.24
2023-01-13T05:32:10.616Z,92.31
2023-01-13T05:34:41.595Z,92.31
2023-01-13T05:37:13.448Z,92.31
2023-01-13T05:40:02.341Z,92.27
2023-01-13T05:42:51.079Z,92.22
2023-01-13T05:45:22.135Z,92.24
2023-01-13T05:47:53.036Z,92.17
2023-01-13T05:50:23.954Z,92.21
2023-01-13T05:52:54.914Z,92.11
2023-01-13T05:55:25.979Z,92.06
2023-01-13T05:57:57.332Z,92.10
2023-01-13T06:00:28.733Z,92.07
2023-01-13T06:02:59.840Z,92.10
2023-01-13T06:05:31.750Z,91.89
2023-01-13T06:08:04.497Z,92.06
2023-01-13T06:10:36.083Z,92.02
2023-01-13T06:13:07.725Z,92.06
2023-01-13T06:15:38.733Z,92.10
2023-01-13T06:18:10.023Z,92.02
2023-01-13T06:20:41.678Z,92.04
2023-01-13T06:23:13.107Z,92.05
2023-01-13T06:25:48.898Z,92.05
2023-01-13T06:28:19.925Z,92.14
2023-01-13T06:30:56.273Z,92.11
2023-01-13T06:33:31.314Z,92.21
2023-01-13T06:36:05.650Z,92.16
2023-01-13T06:38:40.646Z,92.19
2023-01-13T06:41:12.015Z,92.22
2023-01-13T06:43:43.640Z,92.16
2023-01-13T06:46:14.773Z,92.12
2023-01-13T06:48:44.241Z,92.12
2023-01-13T06:51:15.305Z,92.20
2023-01-13T06:53:46.630Z,92.16
2023-01-13T06:56:16.106Z,92.21
2023-01-13T06:58:47.617Z,92.23
2023-01-13T07:01:18.728Z,92.22
2023-01-13T07:03:49.699Z,92.24
2023-01-13T07:06:19.132Z,92.18
2023-01-13T07:08:50.375Z,92.22
2023-01-13T07:11:19.817Z,92.23
2023-01-13T07:14:08.524Z,92.33
2023-01-13T07:16:39.540Z,92.35
2023-01-13T07:19:10.794Z,92.41
2023-01-13T07:21:42.235Z,92.37
2023-01-13T07:24:13.197Z,92.36
2023-01-13T07:26:44.079Z,92.40
2023-01-13T07:29:15.335Z,92.42
2023-01-13T07:31:48.295Z,92.30
2023-01-13T07:34:21.188Z,92.35
2023-01-13T07:36:50.540Z,92.37
2023-01-13T07:39:21.601Z,92.29
2023-01-13T07:42:10.643Z,92.39
2023-01-13T07:44:41.790Z,92.31
2023-01-13T07:47:13.046Z,92.33
2023-01-13T07:49:44.259Z,92.36
2023-01-13T07:52:15.707Z,92.27
2023-01-13T07:54:46.881Z,92.19
2023-01-13T07:57:17.855Z,92.19
2023-01-13T07:59:48.844Z,92.19
2023-01-13T08:02:18.599Z,92.14
2023-01-13T08:04:50.005Z,92.25
2023-01-13T08:07:21.343Z,92.25
2023-01-13T08:09:52.384Z,92.30
2023-01-13T08:12:39.160Z,92.21
2023-01-13T08:15:12.200Z,92.29
2023-01-13T08:17:43.331Z,92.36
2023-01-13T08:20:15.141Z,92.33
2023-01-13T08:22:46.396Z,92.46
2023-01-13T08:25:19.222Z,92.43
2023-01-13T08:27:51.392Z,92.38
2023-01-13T08:30:23.187Z,92.36
2023-01-13T08:32:54.494Z,92.31
2023-01-13T08:35:25.816Z,92.28
2023-01-13T08:37:58.393Z,92.28
2023-01-13T08:40:29.343Z,92.36
2023-01-13T08:43:00.853Z,92.36
2023-01-13T08:45:32.217Z,92.33
2023-01-13T08:48:01.770Z,92.27
2023-01-13T08:50:33.143Z,92.41
2023-01-13T08:53:04.362Z,92.39
2023-01-13T08:55:35.412Z,92.34
2023-01-13T08:58:15.291Z,92.26
2023-01-13T09:00:48.024Z,92.28
2023-01-13T09:03:19.012Z,92.28
2023-01-13T09:05:50.335Z,92.37
2023-01-13T09:08:21.301Z,92.45
2023-01-13T09:10:50.811Z,92.48
2023-01-13T09:13:21.963Z,92.46
2023-01-13T09:15:56.675Z,92.43
2023-01-13T09:18:28.615Z,92.38
2023-01-13T09:21:01.720Z,92.23
2023-01-13T09:23:33.013Z,92.16
2023-01-13T09:26:04.325Z,92.17
2023-01-13T09:28:35.292Z,92.08
2023-01-13T09:31:06.520Z,91.95
2023-01-13T09:33:55.237Z,91.83
2023-01-13T09:36:26.338Z,91.86
2023-01-13T09:38:55.693Z,91.84
2023-01-13T09:41:46.412Z,91.80
2023-01-13T09:44:21.267Z,91.62
2023-01-13T09:46:56.042Z,91.64
2023-01-13T09:49:32.332Z,91.62
2023-01-13T09:52:10.512Z,91.49
2023-01-13T09:54:44.887Z,91.21
2023-01-13T09:57:18.127Z,90.98
2023-01-13T09:59:49.750Z,91.09
2023-01-13T10:02:39.435Z,90.63
2023-01-13T10:05:16.573Z,90.35
2023-01-13T10:07:52.249Z,90.40
2023-01-13T10:10:35.376Z,90.17
2023-01-13T10:13:20.200Z,89.93
2023-01-13T10:16:03.721Z,89.62
2023-01-13T10:18:51.723Z,89.73
2023-01-13T10:21:40.530Z,89.44
2023-01-13T10:24:23.143Z,89.36
2023-01-13T10:27:03.241Z,89.28
2023-01-13T10:29:37.359Z,89.36
2023-01-13T10:32:08.934Z,89.35
2023-01-13T10:34:51.443Z,89.48
2023-01-13T10:37:27.690Z,89.63
2023-01-13T10:40:02.644Z,89.64
2023-01-13T10:42:33.823Z,89.55
2023-01-13T10:45:05.255Z,89.83
2023-01-13T10:47:38.005Z,89.67
2023-01-13T10:50:28.224Z,89.68
2023-01-13T10:53:01.800Z,89.64
2023-01-13T10:55:34.443Z,89.74
2023-01-13T10:58:18.793Z,89.63
2023-01-13T11:00:50.479Z,89.20
2023-01-13T11:03:23.741Z,88.88
2023-01-13T11:05:57.946Z,89.04
2023-01-13T11:08:31.555Z,88.35
2023-01-13T11:11:02.654Z,88.11
2023-01-13T11:13:59.151Z,88.28
2023-01-13T11:16:31.644Z,88.11
2023-01-13T11:19:13.015Z,87.60
2023-01-13T11:21:50.760Z,87.04
2023-01-13T11:24:30.992Z,86.90
2023-01-13T11:27:05.525Z,86.96
2023-01-13T11:29:44.390Z,87.09
2023-01-13T11:32:19.356Z,87.31
2023-01-13T11:34:53.591Z,87.46
2023-01-13T11:37:27.957Z,87.40
2023-01-13T11:40:05.854Z,87.77
2023-01-13T11:42:43.126Z,87.47
2023-01-13T11:45:21.591Z,87.52
2023-01-13T11:47:57.679Z,87.60
2023-01-13T11:50:35.528Z,87.18
2023-01-13T11:53:21.061Z,86.89
2023-01-13T11:56:06.536Z,86.64
2023-01-13T11:58:56.614Z,87.01
2023-01-13T12:01:39.244Z,86.95
2023-01-13T12:04:27.340Z,87.08
2023-01-13T12:07:13.052Z,86.31
2023-01-13T12:09:57.125Z,86.04
2023-01-13T12:12:41.281Z,85.31
2023-01-13T12:15:53.251Z,85.55
2023-01-13T12:18:42.079Z,85.84
2023-01-13T12:21:21.952Z,85.85
2023-01-13T12:24:05.393Z,86.08
2023-01-13T12:26:36.927Z,86.19
2023-01-13T12:29:13.848Z,86.50
2023-01-13T12:31:47.744Z,86.77
2023-01-13T12:34:43.115Z,86.84
2023-01-13T12:37:21.102Z,87.09
2023-01-13T12:40:04.186Z,87.36
2023-01-13T12:42:57.218Z,87.56
2023-01-13T12:45:33.083Z,87.96
2023-01-13T12:48:06.022Z,88.12
2023-01-13T12:50:42.540Z,88.17
2023-01-13T12:53:39.868Z,88.38
2023-01-13T12:56:45.108Z,88.53
2023-01-13T12:59:39.701Z,88.65
2023-01-13T13:02:31.933Z,88.69
2023-01-13T13:05:46.051Z,88.93
2023-01-13T13:08:25.586Z,89.11
2023-01-13T13:11:37.099Z,89.19
2023-01-13T13:14:12.063Z,89.22
2023-01-13T13:16:52.032Z,89.28
2023-01-13T13:19:45.199Z,89.22
2023-01-13T13:22:43.757Z,89.39
2023-01-13T13:25:26.375Z,89.41
2023-01-13T13:28:23.331Z,89.40
2023-01-13T13:31:15.379Z,89.60
2023-01-13T13:34:09.568Z,89.66
2023-01-13T13:37:05.360Z,89.51
2023-01-13T13:39:54.199Z,89.40
2023-01-13T13:42:50.974Z,89.06
2023-01-13T13:45:41.874Z,88.78
2023-01-13T13:48:27.524Z,88.45
2023-01-13T13:51:02.452Z,88.35
2023-01-13T13:53:36.840Z,88.36
2023-01-13T13:56:18.044Z,87.87
2023-01-13T13:58:50.573Z,87.19
2023-01-13T14:01:27.949Z,87.10
2023-01-13T14:04:14.184Z,86.98
2023-01-13T14:06:55.097Z,86.80
2023-01-13T14:09:28.732Z,86.85
2023-01-13T14:12:06.625Z,87.08
2023-01-13T14:14:37.752Z,87.04
2023-01-13T14:17:18.516Z,86.88
2023-01-13T14:19:55.180Z,87.03
2023-01-13T14:22:26.366Z,87.14
2023-01-13T14:24:58.135Z,87.49
2023-01-13T14:27:31.339Z,87.68
2023-01-13T14:30:03.525Z,87.95
2023-01-13T14:32:37.293Z,88.01
2023-01-13T14:35:10.819Z,88.43
2023-01-13T14:37:43.353Z,88.60
2023-01-13T14:40:47.205Z,88.73
2023-01-13T14:43:21.175Z,88.77
2023-01-13T14:46:00.367Z,88.37
2023-01-13T14:48:36.027Z,87.95
2023-01-13T14:51:10.954Z,88.02
2023-01-13T14:53:46.299Z,88.08
2023-01-13T14:56:47.276Z,88.35
2023-01-13T14:59:51.645Z,88.58
2023-01-13T15:02:46.411Z,88.85
2023-01-13T15:05:49.441Z,89.03
2023-01-13T15:08:34.616Z,89.35
2023-01-13T15:11:07.280Z,89.39
2023-01-13T15:13:48.825Z,89.37
2023-01-13T15:16:27.127Z,89.46
2023-01-13T15:18:59.080Z,89.56
2023-01-13T15:21:30.337Z,89.62
2023-01-13T15:24:01.951Z,89.70
2023-01-13T15:26:35.025Z,89.89
2023-01-13T15:29:12.825Z,89.92
2023-01-13T15:31:44.187Z,89.81
2023-01-13T15:34:15.391Z,89.90
2023-01-13T15:36:44.753Z,89.86
2023-01-13T15:39:15.796Z,89.85
2023-01-13T15:42:04.719Z,89.95
2023-01-13T15:44:53.234Z,89.94
2023-01-13T15:47:26.423Z,89.89
2023-01-13T15:49:58.113Z,89.84
2023-01-13T15:52:29.887Z,89.78
2023-01-13T15:55:00.864Z,89.70
2023-01-13T15:57:31.593Z,89.75
2023-01-13T16:00:06.957Z,89.66
2023-01-13T16:02:38.005Z,89.70
2023-01-13T16:05:10.058Z,89.43
2023-01-13T16:07:41.473Z,89.42
2023-01-13T16:10:21.308Z,89.29
2023-01-13T16:12:52.533Z,89.29
2023-01-13T16:15:24.896Z,89.23
2023-01-13T16:17:59.813Z,88.94
2023-01-13T16:20:31.397Z,88.94
2023-01-13T16:23:02.466Z,88.90
2023-01-13T16:25:33.683Z,88.89
2023-01-13T16:28:05.343Z,88.78
2023-01-13T16:30:37.767Z,88.77
2023-01-13T16:33:08.768Z,88.80
2023-01-13T16:36:08.904Z,88.93
2023-01-13T16:38:29.326Z,88.88
2023-01-13T16:41:01.169Z,88.92
2023-01-13T16:43:32.286Z,89.08
2023-01-13T16:46:03.407Z,89.14
2023-01-13T16:48:34.680Z,89.12
2023-01-13T16:51:05.101Z,89.40
2023-01-13T16:53:36.221Z,89.35
2023-01-13T16:56:19.567Z,89.44
2023-01-13T16:58:51.856Z,89.47
2023-01-13T17:01:25.811Z,89.46
2023-01-13T17:03:57.927Z,89.39
2023-01-13T17:06:33.665Z,89.45
2023-01-13T17:09:06.153Z,89.45
2023-01-13T17:11:37.186Z,89.25
2023-01-13T17:14:18.021Z,89.35
2023-01-13T17:16:50.637Z,89.29
2023-01-13T17:19:22.600Z,89.37
2023-01-13T17:21:53.584Z,89.48
2023-01-13T17:24:25.846Z,89.35
2023-01-13T17:26:57.684Z,89.28
2023-01-13T17:29:28.697Z,89.30
2023-01-13T17:31:58.224Z,89.47
2023-01-13T17:34:30.719Z,89.40
2023-01-13T17:37:01.813Z,89.46
2023-01-13T17:39:32.736Z,89.48
2023-01-13T17:42:03.713Z,89.48
2023-01-13T17:44:34.593Z,89.60
2023-01-13T17:47:05.994Z,89.49
2023-01-13T17:49:35.756Z,89.39
2023-01-13T17:52:07.170Z,89.38
2023-01-13T17:54:39.862Z,89.40
2023-01-13T17:57:10.854Z,89.19
2023-01-13T17:59:42.485Z,89.31
2023-01-13T18:02:15.450Z,89.18
2023-01-13T18:04:46.608Z,89.02
2023-01-13T18:07:17.441Z,88.95
2023-01-13T18:09:48.643Z,88.91
2023-01-13T18:12:17.957Z,88.85
2023-01-13T18:14:49.122Z,88.80
2023-01-13T18:17:20.117Z,88.82
2023-01-13T18:20:08.728Z,88.73
2023-01-13T18:22:57.358Z,88.80
2023-01-13T18:25:46.046Z,88.74
2023-01-13T18:28:18.712Z,88.68
2023-01-13T18:30:50.854Z,88.72
2023-01-13T18:33:22.092Z,88.77
2023-01-13T18:35:53.380Z,88.88
2023-01-13T18:38:22.621Z,88.79
2023-01-13T18:40:53.704Z,88.66
2023-01-13T18:43:24.763Z,88.60
2023-01-13T18:45:55.821Z,88.49
2023-01-13T18:48:26.704Z,88.64
2023-01-13T18:50:57.859Z,88.72
2023-01-13T18:53:29.677Z,88.78
2023-01-13T18:56:00.959Z,88.85
2023-01-13T18:58:33.272Z,88.81
2023-01-13T19:01:05.597Z,88.75
2023-01-13T19:03:36.675Z,88.71
2023-01-13T19:06:12.621Z,88.62
2023-01-13T19:08:44.418Z,88.56
2023-01-13T19:11:15.718Z,88.74
2023-01-13T19:13:46.612Z,88.87
2023-01-13T19:16:18.100Z,88.88
2023-01-13T19:18:50.324Z,88.76
2023-01-13T19:21:21.487Z,88.60
2023-01-13T19:23:55.620Z,88.50
2023-01-13T19:26:26.651Z,88.66
2023-01-13T19:28:57.546Z,88.78
2023-01-13T19:31:28.644Z,88.97
2023-01-13T19:33:58.329Z,89.06
2023-01-13T19:36:29.501Z,89.20
2023-01-13T19:39:00.520Z,89.13
2023-01-13T19:41:48.822Z,88.81
2023-01-13T19:44:37.238Z,88.93
2023-01-13T19:47:08.212Z,88.96
2023-01-13T19:49:39.248Z,89.02
2023-01-13T19:52:10.550Z,89.18
2023-01-13T19:54:41.775Z,89.18
2023-01-13T19:57:13.041Z,89.04
2023-01-13T19:59:44.632Z,89.00
2023-01-13T20:02:15.783Z,88.89
2023-01-13T20:04:48.989Z,88.94
2023-01-13T20:07:20.219Z,89.09
2023-01-13T20:09:51.771Z,89.24
2023-01-13T20:12:21.630Z,89.40
2023-01-13T20:14:52.940Z,89.43
2023-01-13T20:17:25.600Z,89.62
2023-01-13T20:19:56.523Z,89.47
2023-01-13T20:22:27.628Z,89.43
2023-01-13T20:24:58.658Z,89.59
2023-01-13T20:27:29.767Z,89.57
2023-01-13T20:30:00.756Z,89.78
2023-01-13T20:32:31.795Z,89.82
2023-01-13T20:35:02.723Z,90.16
2023-01-13T20:37:33.959Z,90.58
2023-01-13T20:40:05.048Z,90.83
2023-01-13T20:42:44.803Z,91.27
2023-01-13T20:45:20.897Z,91.50
2023-01-13T20:47:52.354Z,92.33
2023-01-13T20:50:23.460Z,92.65
2023-01-13T20:52:53.669Z,92.66
2023-01-13T20:55:24.961Z,92.73
2023-01-13T20:57:56.302Z,92.55
2023-01-13T21:00:28.655Z,92.42
2023-01-13T21:02:59.942Z,92.26
2023-01-13T21:05:31.059Z,92.04
2023-01-13T21:08:01.937Z,91.91
2023-01-13T21:10:32.969Z,91.72
2023-01-13T21:13:21.504Z,91.43
2023-01-13T21:15:55.344Z,91.12
2023-01-13T21:18:43.603Z,90.84
2023-01-13T21:21:14.796Z,90.66
2023-01-13T21:23:47.604Z,90.40
2023-01-13T21:26:19.753Z,90.14
2023-01-13T21:28:51.805Z,89.88
2023-01-13T21:31:22.990Z,89.72
2023-01-13T21:33:56.918Z,89.61
2023-01-13T21:36:28.984Z,89.31
2023-01-13T21:39:01.307Z,89.22
2023-01-13T21:41:50.029Z,89.01
2023-01-13T21:44:39.598Z,88.81
2023-01-13T21:47:34.522Z,88.63
2023-01-13T21:50:08.441Z,88.42
2023-01-13T21:52:39.681Z,88.29
2023-01-13T21:55:20.419Z,88.07
2023-01-13T21:57:53.240Z,87.93
2023-01-13T22:00:27.018Z,87.81
2023-01-13T22:03:00.128Z,87.68
2023-01-13T22:05:31.934Z,87.48
2023-01-13T22:08:02.980Z,87.64
2023-01-13T22:10:34.334Z,87.45
2023-01-13T22:13:19.707Z,87.43
2023-01-13T22:15:50.817Z,87.32
2023-01-13T22:18:22.104Z,87.31
2023-01-13T22:20:53.153Z,87.31
2023-01-13T22:23:24.119Z,87.23
2023-01-13T22:26:03.142Z,86.98
2023-01-13T22:28:40.716Z,86.87
2023-01-13T22:31:13.458Z,86.85
2023-01-13T22:33:47.059Z,86.89
2023-01-13T22:36:19.366Z,86.76
2023-01-13T22:38:53.773Z,86.70
2023-01-13T22:41:25.127Z,86.88
2023-01-13T22:43:56.028Z,86.81
2023-01-13T22:46:27.054Z,86.81
2023-01-13T22:48:58.055Z,86.72
2023-01-13T22:51:30.515Z,86.65
2023-01-13T22:54:01.792Z,86.47
2023-01-13T22:56:31.278Z,86.44
2023-01-13T22:59:03.831Z,86.46
2023-01-13T23:01:36.259Z,86.20
2023-01-13T23:04:07.761Z,86.07
2023-01-13T23:06:39.104Z,86.10
2023-01-13T23:09:10.108Z,86.23
2023-01-13T23:11:41.811Z,86.09
2023-01-13T23:14:14.167Z,86.27
2023-01-13T23:16:47.101Z,86.26
2023-01-13T23:19:18.084Z,86.36
2023-01-13T23:21:49.074Z,86.25
2023-01-13T23:24:18.648Z,86.23
2023-01-13T23:26:49.963Z,86.20
2023-01-13T23:29:19.440Z,86.23
2023-01-13T23:31:50.739Z,86.31
2023-01-13T23:34:21.961Z,86.50
2023-01-13T23:36:52.948Z,86.43
2023-01-13T23:39:24.672Z,86.49
2023-01-13T23:41:55.779Z,86.42
2023-01-13T23:44:26.929Z,86.45
2023-01-13T23:46:56.346Z,86.58
2023-01-13T23:49:27.483Z,86.47
2023-01-13T23:51:58.736Z,86.50
2023-01-13T23:54:29.752Z,86.33
2023-01-13T23:57:01.056Z,86.35
2023-01-13T23:59:32.224Z,86.44
